Главная страница
METAR-TAF:

METAR-TAF

Аэропорты :

Калгари, Альберта, Канада

широта: 51-07N, долгота: 114-01W, высота над уровнем моря: 1077 м

Текущие метеонаблюдения

Эта сводка был подготовлена 1 час и 7 минут назад, в 11:00 UTC
Ветер 4 Узел от юго-юго-восточный
Температура -6°C
Влажность 53%
Давление 1010 hPa
Видимость: 24.1 км
небольшая облачность на высоте 16000 фута
небольшая облачность на высоте 18000 фута

METAR: CYYC 211100Z 16004KT 15SM FEW160 FEW180 M06/M14 A2982 RMK AC1AS1 AC TR AS TR SLP148

Время: 05:07 (12:07 UTC)

Прогноз

Эта сводка был подготовлена 27 минут назад, в 11:40 UTC
Прогноз действительный с 21-го 12 UTC до 22-го 12 UTC
Ветер 6 Узел от южный-юго-западный
Видимость: 10 км
небольшая облачность на высоте 5000 фута
Отдельные облака на высоте 20000 фута
изменения
С 21-го 20 UTC до 21-го 22 UTC
Ветер 10 Узел от южный

TAF: CYYC 211140Z 2112/2212 20006KT P6SM FEW050 SCT200 BECMG 2120/2122 19010KT RMK NXT FCST BY 211500Z

Метеонаблюдения и прогнозы для более 4000 аэропортов (сводки METAR и TAF).

Имеющиеся станции представлены на карте желтыми и красными точками.

Чтобы увидеть название станции, наведите на нее мышь.

Затем щелкните, чтобы увидеть метеонаблюдения и метеопрогнозы.

Управление картой: чтобы увеличить масштаб, щелкните зеленые кнопки с черным крестиком; чтобы уменьшить масштаб, щелкните зеленую кнопку с тире; для просмотра соседних карт щелкайте зеленые стрелки.


METAR-TAF: